الصفحة الرئيسية
METAR-TAF:

METAR-TAF

مطار :

كاشان, إيران

دائرة عرض: 33-59N, خط طول: 051-27E, ارتفاع: 982 متر

مراقبة الطقس الحالي

تاريخ ووقت الإصدار 1ساعة و 26 دقيقة قبل الساعة 08:00UTC
رياح هادئة
درجة الحرارة 35°درجة مئوية
الرطوبة 16%
ضغط 1010 hPa
الرؤية: 7000 متر

METAR: OIFK 140800Z 00000KT 7000 NSC 35/05 Q1010 A2983

زمن: 13:56 (09:26 UTC)


TAF: مفقودة

أرصاد الطقس والتوقعات من أكثر من 4000 مطار (تقارير الطقس للمطار METAR والتنبؤ بالطقس بالمطارTAF).

المحطات المتاحة هي النقط الصفراء والحمراء على الخريطة.

حرك المؤشر فوق النقطة لمعرفة اسم المحطة.

ثم انقر لمعرفة أرصاد وتوقعات الطقس.

لتغيير الخارطة: اضغط على الأزرار الخضراء مع رمز الصليب الأسود للتكبير. على الزر الأخضر مع شرطة للتصغير، أو على الأسهم الخضراء للخرائط المجاورة.


METAR-TAF: